createdAt,value
2022-08-17T00:02:26.930Z,99661.34
2022-08-17T00:05:33.381Z,99679.56
2022-08-17T00:08:40.571Z,99681.91
2022-08-17T00:12:43.786Z,99680.34
2022-08-17T00:15:08.273Z,99680.34
2022-08-17T00:19:05.818Z,99675.94
2022-08-17T00:22:33.213Z,99680.50
2022-08-17T00:25:00.870Z,99663.09
2022-08-17T00:28:04.261Z,99663.97
2022-08-17T00:31:08.709Z,99658.16
2022-08-17T00:34:10.930Z,99659.38
2022-08-17T00:37:13.485Z,99683.81
2022-08-17T00:40:16.015Z,99681.00
2022-08-17T00:43:41.779Z,99659.56
2022-08-17T00:46:44.809Z,99654.81
2022-08-17T00:49:47.301Z,99656.47
2022-08-17T00:52:56.359Z,99677.03
2022-08-17T00:56:03.208Z,99678.69
2022-08-17T00:59:08.435Z,99683.59
2022-08-17T01:02:18.693Z,99685.78
2022-08-17T01:05:25.566Z,99677.06
2022-08-17T01:08:31.058Z,99698.16
2022-08-17T01:11:35.366Z,99682.41
2022-08-17T01:14:39.534Z,99698.66
2022-08-17T01:17:43.297Z,99699.88
2022-08-17T01:20:52.058Z,99696.66
2022-08-17T01:23:54.974Z,99697.06
2022-08-17T01:26:57.686Z,99700.75
2022-08-17T01:30:57.902Z,99711.97
2022-08-17T01:33:30.228Z,99707.97
2022-08-17T01:36:32.572Z,99703.22
2022-08-17T01:39:52.568Z,99681.00
2022-08-17T01:43:03.323Z,99693.31
2022-08-17T01:46:06.040Z,99698.22
2022-08-17T01:49:11.051Z,99697.00
2022-08-17T01:52:13.763Z,99696.63
2022-08-17T01:55:23.413Z,99701.44
2022-08-17T01:58:28.432Z,99701.16
2022-08-17T02:01:33.676Z,99679.72
2022-08-17T02:04:36.668Z,99703.19
2022-08-17T02:07:55.982Z,99695.25
2022-08-17T02:11:11.637Z,99705.69
2022-08-17T02:14:14.566Z,99691.06
2022-08-17T02:17:17.282Z,99715.78
2022-08-17T02:20:41.724Z,99706.19
2022-08-17T02:23:46.456Z,99703.03
2022-08-17T02:26:48.731Z,99677.69
2022-08-17T02:29:51.338Z,99693.88
2022-08-17T02:32:54.472Z,99690.31
2022-08-17T02:35:57.906Z,99696.69
2022-08-17T02:39:02.419Z,99686.31
2022-08-17T02:42:05.694Z,99695.81
2022-08-17T02:45:11.383Z,99697.41
2022-08-17T02:48:13.916Z,99684.00
2022-08-17T02:51:33.211Z,99672.78
2022-08-17T02:54:41.727Z,99671.13
2022-08-17T02:57:45.604Z,99696.56
2022-08-17T03:00:48.547Z,99700.59
2022-08-17T03:03:50.731Z,99706.19
2022-08-17T03:06:53.279Z,99691.06
2022-08-17T03:09:55.500Z,99699.88
2022-08-17T03:12:58.265Z,99681.72
2022-08-17T03:16:00.504Z,99699.13
2022-08-17T03:19:03.085Z,99682.16
2022-08-17T03:22:37.337Z,99702.44
2022-08-17T03:25:37.379Z,99689.88
2022-08-17T03:28:41.040Z,99706.63
2022-08-17T03:31:43.542Z,99690.84
2022-08-17T03:34:45.889Z,99701.41
2022-08-17T03:38:00.890Z,99718.03
2022-08-17T03:41:05.901Z,99708.22
2022-08-17T03:44:08.412Z,99709.03
2022-08-17T03:47:29.213Z,99728.47
2022-08-17T03:50:50.179Z,99724.91
2022-08-17T03:54:17.195Z,99707.47
2022-08-17T03:57:20.000Z,99726.16
2022-08-17T04:00:22.333Z,99731.78
2022-08-17T04:03:25.035Z,99712.34
2022-08-17T04:06:27.279Z,99733.41
2022-08-17T04:09:29.846Z,99722.38
2022-08-17T04:12:45.703Z,99741.87
2022-08-17T04:15:49.242Z,99740.69
2022-08-17T04:18:52.257Z,99741.53
2022-08-17T04:21:54.994Z,99725.63
2022-08-17T04:24:57.294Z,99723.25
2022-08-17T04:28:02.681Z,99728.06
2022-08-17T04:31:05.173Z,99741.53
2022-08-17T04:34:10.081Z,99721.25
2022-08-17T04:37:12.394Z,99730.38
2022-08-17T04:40:33.986Z,99741.72
2022-08-17T04:43:38.184Z,99761.16
2022-08-17T04:46:41.239Z,99738.88
2022-08-17T04:49:43.513Z,99747.22
2022-08-17T04:52:46.618Z,99765.44
2022-08-17T04:55:51.353Z,99752.34
2022-08-17T04:58:57.766Z,99772.63
2022-08-17T05:02:00.029Z,99766.28
2022-08-17T05:05:02.580Z,99775.06
2022-08-17T05:08:07.701Z,99780.66
2022-08-17T05:11:10.422Z,99777.50
2022-08-17T05:14:13.237Z,99779.81
2022-08-17T05:17:15.798Z,99786.91
2022-08-17T05:20:18.122Z,99779.53
2022-08-17T05:23:23.065Z,99763.66
2022-08-17T05:26:27.557Z,99766.75
2022-08-17T05:29:35.567Z,99777.69
2022-08-17T05:32:40.380Z,99768.16
2022-08-17T05:35:49.315Z,99765.22
2022-08-17T05:38:51.573Z,99781.38
2022-08-17T05:41:54.187Z,99771.59
2022-08-17T05:44:59.548Z,99781.84
2022-08-17T05:48:02.856Z,99786.44
2022-08-17T05:51:23.665Z,99768.91
2022-08-17T05:54:41.667Z,99784.44
2022-08-17T05:58:02.440Z,99788.16
2022-08-17T06:01:20.334Z,99791.56
2022-08-17T06:04:30.942Z,99800.19
2022-08-17T06:07:39.016Z,99798.78
2022-08-17T06:11:11.173Z,99798.53
2022-08-17T06:14:43.553Z,99803.47
2022-08-17T06:17:46.535Z,99801.22
2022-08-17T06:21:00.411Z,99805.78
2022-08-17T06:24:27.536Z,99806.84
2022-08-17T06:27:40.613Z,99793.81
2022-08-17T06:31:00.546Z,99778.72
2022-08-17T06:34:08.512Z,99798.13
2022-08-17T06:37:26.553Z,99796.75
2022-08-17T06:40:37.569Z,99793.56
2022-08-17T06:43:49.142Z,99818.37
2022-08-17T06:46:56.211Z,99808.59
2022-08-17T06:50:04.827Z,99797.44
2022-08-17T06:53:16.629Z,99806.31
2022-08-17T06:56:57.740Z,99808.38
2022-08-17T07:00:07.983Z,99815.59
2022-08-17T07:03:16.400Z,99822.69
2022-08-17T07:06:22.189Z,99814.56
2022-08-17T07:09:35.840Z,99815.56
2022-08-17T07:12:42.888Z,99803.94
2022-08-17T07:15:51.809Z,99814.62
2022-08-17T07:18:59.378Z,99800.69
2022-08-17T07:22:14.296Z,99822.53
2022-08-17T07:25:21.616Z,99826.22
2022-08-17T07:28:25.298Z,99827.19
2022-08-17T07:31:30.788Z,99810.91
2022-08-17T07:35:15.467Z,99815.47
2022-08-17T07:38:26.754Z,99821.62
2022-08-17T07:41:57.555Z,99815.97
2022-08-17T07:45:22.916Z,99819.94
2022-08-17T07:48:27.409Z,99807.56
2022-08-17T07:51:33.421Z,99820.91
2022-08-17T07:54:39.336Z,99817.91
2022-08-17T07:57:41.883Z,99819.59
2022-08-17T08:01:15.291Z,99763.00
2022-08-17T08:08:06.043Z,99835.72
2022-08-17T08:11:12.817Z,99827.81
2022-08-17T08:14:38.583Z,99836.75
2022-08-17T08:17:57.696Z,99833.13
2022-08-17T08:21:33.258Z,99825.50
2022-08-17T08:24:47.994Z,99827.75
2022-08-17T08:28:09.075Z,99836.03
2022-08-17T08:31:57.218Z,99808.06
2022-08-17T08:35:26.875Z,99835.13
2022-08-17T08:38:49.427Z,99819.53
2022-08-17T08:42:07.739Z,99835.91
2022-08-17T08:45:18.363Z,99838.19
2022-08-17T08:48:53.678Z,99823.69
2022-08-17T08:51:57.994Z,99828.63
2022-08-17T08:55:35.609Z,99812.09
2022-08-17T08:59:02.192Z,99823.84
2022-08-17T09:02:16.770Z,99823.69
2022-08-17T09:05:31.423Z,99820.19
2022-08-17T09:08:39.598Z,99816.88
2022-08-17T09:12:02.931Z,99815.66
2022-08-17T09:15:40.467Z,99810.66
2022-08-17T09:19:03.121Z,99824.19
2022-08-17T09:22:20.451Z,99826.81
2022-08-17T09:25:29.066Z,99807.59
2022-08-17T09:28:38.497Z,99821.75
2022-08-17T09:31:55.102Z,99784.38
2022-08-17T09:35:03.745Z,99814.88
2022-08-17T09:38:35.237Z,99816.44
2022-08-17T09:42:08.042Z,99812.25
2022-08-17T09:45:39.950Z,99807.38
2022-08-17T09:48:50.295Z,99819.25
2022-08-17T09:52:03.308Z,99795.63
2022-08-17T09:55:06.524Z,99798.56
2022-08-17T09:58:22.915Z,99797.44
2022-08-17T10:01:31.869Z,99798.34
2022-08-17T10:05:13.580Z,99796.97
2022-08-17T10:08:27.659Z,99791.22
2022-08-17T10:11:51.761Z,99804.53
2022-08-17T10:15:08.042Z,99795.16
2022-08-17T10:18:49.606Z,99798.56
2022-08-17T10:22:32.411Z,99804.56
2022-08-17T10:25:57.002Z,99802.53
2022-08-17T10:29:13.332Z,99809.84
2022-08-17T10:32:32.388Z,99787.97
2022-08-17T10:35:43.587Z,99786.50
2022-08-17T10:38:49.734Z,99792.19
2022-08-17T10:41:57.214Z,99786.53
2022-08-17T10:45:11.402Z,99785.16
2022-08-17T10:48:39.267Z,99786.44
2022-08-17T10:52:00.053Z,99798.13
2022-08-17T10:55:08.984Z,99802.78
2022-08-17T10:58:22.235Z,99797.63
2022-08-17T11:06:13.659Z,99797.00
2022-08-17T11:09:54.420Z,99778.09
2022-08-17T11:13:04.291Z,99787.50
2022-08-17T11:16:41.346Z,99770.81
2022-08-17T11:20:16.013Z,99730.12
2022-08-17T11:23:40.705Z,99764.34
2022-08-17T11:26:59.047Z,99766.75
2022-08-17T11:30:35.944Z,99768.16
2022-08-17T11:33:41.285Z,99755.72
2022-08-17T11:37:11.237Z,99755.06
2022-08-17T11:40:36.011Z,99759.06
2022-08-17T11:44:16.863Z,99751.81
2022-08-17T11:48:16.056Z,99755.78
2022-08-17T11:51:34.789Z,99745.72
2022-08-17T11:54:47.142Z,99735.66
2022-08-17T11:58:26.336Z,99739.22
2022-08-17T12:01:31.881Z,99749.25
2022-08-17T12:04:35.954Z,99742.56
2022-08-17T12:07:52.032Z,99731.44
2022-08-17T12:11:00.592Z,99721.16
2022-08-17T12:14:03.838Z,99730.41
2022-08-17T12:17:12.221Z,99724.75
2022-08-17T12:20:42.096Z,99719.34
2022-08-17T12:24:06.666Z,99724.25
2022-08-17T12:27:11.602Z,99718.84
2022-08-17T12:30:19.435Z,99699.75
2022-08-17T12:33:28.377Z,99695.03
2022-08-17T12:36:33.087Z,99705.66
2022-08-17T12:39:35.480Z,99703.50
2022-08-17T12:42:41.442Z,99714.03
2022-08-17T12:45:44.201Z,99702.94
2022-08-17T12:48:58.821Z,99692.41
2022-08-17T12:52:13.511Z,99697.03
2022-08-17T12:55:24.626Z,99689.37
2022-08-17T12:58:32.505Z,99694.28
2022-08-17T13:01:38.890Z,99697.53
2022-08-17T13:04:41.213Z,99692.81
2022-08-17T13:07:46.442Z,99699.81
2022-08-17T13:11:01.316Z,99691.78
2022-08-17T13:14:10.533Z,99677.50
2022-08-17T13:17:13.868Z,99686.00
2022-08-17T13:20:16.443Z,99691.59
2022-08-17T13:23:20.542Z,99694.34
2022-08-17T13:26:47.709Z,99691.19
2022-08-17T13:29:55.809Z,99681.09
2022-08-17T13:32:59.013Z,99695.66
2022-08-17T13:36:08.809Z,99670.25
2022-08-17T13:39:24.412Z,99661.09
2022-08-17T13:42:52.001Z,99669.28
2022-08-17T13:46:08.174Z,99673.03
2022-08-17T13:49:12.007Z,99676.97
2022-08-17T13:52:33.078Z,99656.66
2022-08-17T13:55:36.007Z,99668.88
2022-08-17T13:58:52.260Z,99667.81
2022-08-17T14:01:55.328Z,99666.50
2022-08-17T14:04:58.524Z,99665.37
2022-08-17T14:08:07.036Z,99671.59
2022-08-17T14:11:10.909Z,99656.69
2022-08-17T14:14:14.332Z,99674.53
2022-08-17T14:17:16.967Z,99667.31
2022-08-17T14:20:22.141Z,99665.47
2022-08-17T14:23:25.052Z,99660.31
2022-08-17T14:26:27.595Z,99663.94
2022-08-17T14:29:32.156Z,99669.47
2022-08-17T14:32:37.264Z,99640.81
2022-08-17T14:35:40.782Z,99659.44
2022-08-17T14:38:44.107Z,99654.75
2022-08-17T14:41:46.985Z,99639.16
2022-08-17T14:44:49.060Z,99657.91
2022-08-17T14:47:52.130Z,99662.34
2022-08-17T14:50:55.056Z,99649.28
2022-08-17T14:53:57.663Z,99654.25
2022-08-17T14:57:04.634Z,99642.06
2022-08-17T15:00:22.802Z,99635.28
2022-08-17T15:03:24.952Z,99650.13
2022-08-17T15:06:27.514Z,99654.84
2022-08-17T15:09:30.619Z,99652.50
2022-08-17T15:12:39.440Z,99647.56
2022-08-17T15:15:41.704Z,99640.22
2022-08-17T15:18:44.247Z,99634.72
2022-08-17T15:21:46.967Z,99652.19
2022-08-17T15:24:49.647Z,99648.28
2022-08-17T15:27:52.908Z,99652.66
2022-08-17T15:30:55.651Z,99653.66
2022-08-17T15:33:58.457Z,99635.87
2022-08-17T15:37:01.066Z,99651.47
2022-08-17T15:40:04.961Z,99654.31
2022-08-17T15:43:17.273Z,99645.13
2022-08-17T15:46:22.543Z,99631.78
2022-08-17T15:49:25.053Z,99648.91
2022-08-17T15:52:30.013Z,99647.28
2022-08-17T15:55:34.072Z,99631.09
2022-08-17T15:58:46.641Z,99643.00
2022-08-17T16:03:15.877Z,99641.34
2022-08-17T16:05:15.933Z,99640.03
2022-08-17T16:08:21.590Z,99650.94
2022-08-17T16:11:24.442Z,99657.34
2022-08-17T16:14:33.706Z,99632.03
2022-08-17T16:17:39.932Z,99639.78
2022-08-17T16:20:44.034Z,99654.03
2022-08-17T16:23:49.512Z,99657.78
2022-08-17T16:26:51.814Z,99633.97
2022-08-17T16:29:54.353Z,99630.53
2022-08-17T16:33:00.594Z,99624.22
2022-08-17T16:36:03.703Z,99642.16
2022-08-17T16:39:05.953Z,99629.00
2022-08-17T16:42:41.581Z,99619.25
2022-08-17T16:45:47.483Z,99634.84
2022-08-17T16:48:52.517Z,99640.69
2022-08-17T16:52:01.547Z,99642.94
2022-08-17T16:55:06.207Z,99634.97
2022-08-17T16:58:08.939Z,99643.44
2022-08-17T17:01:11.709Z,99643.44
2022-08-17T17:04:17.249Z,99638.94
2022-08-17T17:07:37.013Z,99647.62
2022-08-17T17:11:03.778Z,99638.56
2022-08-17T17:14:16.929Z,99657.19
2022-08-17T17:17:28.302Z,99658.84
2022-08-17T17:20:42.704Z,99651.22
2022-08-17T17:24:03.495Z,99646.12
2022-08-17T17:27:47.158Z,99631.62
2022-08-17T17:31:11.177Z,99657.53
2022-08-17T17:34:16.581Z,99666.19
2022-08-17T17:37:26.533Z,99665.78
2022-08-17T17:40:38.201Z,99648.84
2022-08-17T17:43:41.358Z,99673.19
2022-08-17T17:46:50.454Z,99659.44
2022-08-17T17:49:52.829Z,99663.94
2022-08-17T17:53:02.163Z,99683.16
2022-08-17T17:56:34.317Z,99686.06
2022-08-17T18:00:08.297Z,99680.00
2022-08-17T18:03:32.539Z,99678.75
2022-08-17T18:07:00.318Z,99679.59
2022-08-17T18:10:29.783Z,99677.12
2022-08-17T18:14:14.303Z,99680.03
2022-08-17T18:17:18.212Z,99681.34
2022-08-17T18:20:32.485Z,99674.50
2022-08-17T18:23:51.033Z,99694.53
2022-08-17T18:26:56.609Z,99698.47
2022-08-17T18:30:28.842Z,99696.00
2022-08-17T18:33:31.554Z,99682.16
2022-08-17T18:36:39.849Z,99693.09
2022-08-17T18:39:42.468Z,99710.25
2022-08-17T18:43:27.005Z,99693.91
2022-08-17T18:46:35.966Z,99714.09
2022-08-17T18:49:42.018Z,99718.84
2022-08-17T18:52:47.295Z,99709.09
2022-08-17T18:55:51.880Z,99699.62
2022-08-17T18:59:24.681Z,99718.53
2022-08-17T19:05:53.707Z,99722.38
2022-08-17T19:08:56.053Z,99696.84
2022-08-17T19:12:01.785Z,99722.53
2022-08-17T19:15:04.492Z,99716.41
2022-08-17T19:18:18.639Z,99714.19
2022-08-17T19:21:45.067Z,99730.88
2022-08-17T19:24:51.014Z,99717.63
2022-08-17T19:28:21.591Z,99722.69
2022-08-17T19:31:28.753Z,99740.50
2022-08-17T19:34:34.736Z,99743.47
2022-08-17T19:37:51.873Z,99740.31
2022-08-17T19:41:16.028Z,99739.66
2022-08-17T19:44:21.574Z,99736.69
2022-08-17T19:47:54.446Z,99739.34
2022-08-17T19:51:12.052Z,99734.00
2022-08-17T19:54:35.262Z,99727.06
2022-08-17T19:57:37.814Z,99739.66
2022-08-17T20:00:47.865Z,99742.78
2022-08-17T20:03:59.781Z,99742.16
2022-08-17T20:07:19.616Z,99735.84
2022-08-17T20:10:54.914Z,99742.47
2022-08-17T20:14:32.852Z,99736.13
2022-08-17T20:17:39.291Z,99738.66
2022-08-17T20:20:47.007Z,99710.59
2022-08-17T20:24:00.548Z,99734.84
2022-08-17T20:27:31.573Z,99712.00
2022-08-17T20:30:42.682Z,99739.22
2022-08-17T20:33:44.968Z,99727.41
2022-08-17T20:37:08.905Z,99710.22
2022-08-17T20:40:14.482Z,99728.94
2022-08-17T20:43:34.941Z,99720.28
2022-08-17T20:47:03.723Z,99727.50
2022-08-17T20:50:15.083Z,99701.56
2022-08-17T20:53:53.523Z,99715.16
2022-08-17T20:56:58.174Z,99718.25
2022-08-17T21:00:17.684Z,99722.91
2022-08-17T21:03:22.775Z,99720.03
2022-08-17T21:06:27.847Z,99717.97
2022-08-17T21:09:31.495Z,99701.00
2022-08-17T21:12:48.146Z,99724.16
2022-08-17T21:16:08.094Z,99725.19
2022-08-17T21:19:19.157Z,99720.59
2022-08-17T21:22:40.643Z,99714.53
2022-08-17T21:25:58.183Z,99729.91
2022-08-17T21:29:29.512Z,99734.13
2022-08-17T21:32:37.565Z,99734.25
2022-08-17T21:35:59.578Z,99709.13
2022-08-17T21:39:10.069Z,99710.94
2022-08-17T21:42:12.820Z,99741.31
2022-08-17T21:45:35.089Z,99715.28
2022-08-17T21:48:48.332Z,99739.88
2022-08-17T21:51:55.018Z,99736.84
2022-08-17T21:55:02.351Z,99754.59
2022-08-17T21:58:22.282Z,99724.13
2022-08-17T22:01:31.866Z,99752.31
2022-08-17T22:04:34.384Z,99725.50
2022-08-17T22:07:51.124Z,99751.78
2022-08-17T22:11:01.007Z,99725.03
